Time;durP1;ratioP1;P1;durP2;ratioP2;P2;SDS_P1;SDS_P2;PMS_P1;PMS_P2;Temp;Humidity;BMP_temperature;BMP_pressure;BME280_temperature;BME280_humidity;BME280_pressure;Samples;Min_cycle;Max_cycle;Signal;HPM_P1;HPM_P2
2022/10/02 00:01:30;;;;;;;;;;;;;;;16.03;80.30;100441.47;10419352;28;20115;-69
2022/10/02 00:06:42;;;;;;;33.80;16.80;;;;;;;15.56;82.27;100400.25;10413461;28;20396;-70
2022/10/02 00:11:46;;;;;;;41.63;21.98;;;;;;;15.71;81.89;100441.16;10411335;28;20484;-70
2022/10/02 00:16:51;;;;;;;36.38;19.42;;;;;;;15.64;83.13;100446.41;10376661;28;20077;-69
2022/10/02 00:22:19;;;;;;;32.58;16.75;;;;;;;15.64;85.91;100449.09;10378800;28;20437;-69
2022/10/02 00:27:39;;;;;;;23.13;14.38;;;;;;;15.51;83.30;100446.38;10417742;28;20095;-70
2022/10/02 00:33:04;;;;;;;29.50;15.45;;;;;;;15.46;86.56;100454.16;10418306;28;20056;-69
2022/10/02 00:38:14;;;;;;;27.20;14.88;;;;;;;15.37;86.90;100448.13;10400413;28;20544;-69
2022/10/02 00:43:32;;;;;;;27.15;12.40;;;;;;;14.98;88.15;100387.97;10376041;28;20048;-70
2022/10/02 00:48:47;;;;;;;22.08;10.77;;;;;;;14.80;88.43;100358.22;10376717;28;20042;-70
2022/10/02 00:54:10;;;;;;;14.20;5.90;;;;;;;15.31;89.88;100438.22;10375261;28;20453;-71
2022/10/02 00:59:26;;;;;;;39.63;13.80;;;;;;;15.24;87.61;100434.66;10374963;28;20557;-73
2022/10/02 01:04:33;;;;;;;45.47;16.70;;;;;;;15.01;88.27;100408.16;10374033;28;20068;-74
2022/10/02 01:09:35;;;;;;;27.50;15.60;;;;;;;15.15;86.40;100422.47;10375115;28;20049;-69
2022/10/02 01:14:39;;;;;;;47.95;17.70;;;;;;;15.11;87.26;100422.03;10374449;28;20080;-71
2022/10/02 01:19:41;;;;;;;29.48;15.32;;;;;;;15.06;87.18;100432.50;10374921;28;20569;-71
2022/10/02 01:25:05;;;;;;;62.08;32.45;;;;;;;14.97;89.44;100423.78;10374684;28;20556;-71
2022/10/02 01:30:10;;;;;;;103.50;60.53;;;;;;;14.98;88.56;100432.63;10373450;28;20111;-70
2022/10/02 01:35:11;;;;;;;85.32;47.20;;;;;;;14.29;87.81;100337.03;10373803;28;20049;-71
2022/10/02 01:40:33;;;;;;;98.13;56.67;;;;;;;14.70;90.25;100416.59;10373586;28;20044;-70
2022/10/02 01:45:49;;;;;;;83.35;51.35;;;;;;;14.75;90.64;100436.38;10373538;28;20417;-71
2022/10/02 01:51:03;;;;;;;71.03;40.38;;;;;;;14.63;90.36;100423.69;10373228;28;20072;-71
2022/10/02 01:56:53;;;;;;;231.73;137.80;;;;;;;14.64;92.00;100417.34;10373077;28;20107;-72
2022/10/02 02:02:13;;;;;;;92.05;54.92;;;;;;;14.55;89.12;100419.34;10370840;28;20456;-70
2022/10/02 02:07:24;;;;;;;92.28;53.47;;;;;;;14.43;90.02;100410.97;10372629;28;20042;-71
2022/10/02 02:12:25;;;;;;;82.80;53.05;;;;;;;14.01;89.49;100337.81;10373021;28;20044;-71
2022/10/02 02:17:39;;;;;;;34.53;22.20;;;;;;;14.43;91.51;100421.66;10372654;28;20042;-70
2022/10/02 02:22:43;;;;;;;;;;;;;;;14.51;91.28;100424.25;10373772;28;20108;-69
2022/10/02 02:27:49;;;;;;;50.17;28.90;;;;;;;14.22;90.38;100429.69;10381241;28;19917;-70
2022/10/02 02:32:55;;;;;;;73.10;36.17;;;;;;;13.86;91.08;100383.25;10412007;28;20296;-73
2022/10/02 02:38:03;;;;;;;68.15;30.83;;;;;;;14.19;91.98;100422.88;10413751;28;20402;-70
2022/10/02 02:43:13;;;;;;;35.58;21.20;;;;;;;14.18;92.81;100415.03;10411212;28;20413;-69
2022/10/02 02:48:42;;;;;;;101.50;26.05;;;;;;;13.80;92.76;100368.00;10412918;28;20136;-69
2022/10/02 02:53:55;;;;;;;200.93;27.13;;;;;;;13.90;92.80;100379.19;10419758;28;20406;-70
2022/10/02 02:59:02;;;;;;;24.50;13.87;;;;;;;14.03;91.09;100409.72;10421570;28;20064;-71
2022/10/02 03:04:03;;;;;;;115.75;16.75;;;;;;;13.87;91.30;100390.25;10420530;28;20107;-70
2022/10/02 03:09:17;;;;;;;165.57;18.67;;;;;;;14.05;94.23;100413.88;10419123;28;20096;-69
2022/10/02 03:14:51;;;;;;;116.90;12.20;;;;;;;14.05;92.29;100403.19;10420634;28;20053;-69
2022/10/02 03:19:58;;;;;;;62.42;10.45;;;;;;;14.02;91.96;100397.41;10419818;28;20132;-71
2022/10/02 03:25:07;;;;;;;40.35;7.93;;;;;;;14.08;91.91;100397.47;10419637;28;20072;-71
2022/10/02 03:30:11;;;;;;;61.28;7.75;;;;;;;14.18;91.22;100388.31;10419980;28;20071;-71
2022/10/02 03:35:13;;;;;;;73.20;9.40;;;;;;;13.74;90.12;100290.50;10419200;28;20048;-71
2022/10/02 03:40:15;;;;;;;71.93;10.07;;;;;;;14.43;89.54;100354.84;10419117;28;20084;-72
2022/10/02 03:45:15;;;;;;;127.05;12.75;;;;;;;14.66;89.70;100351.13;10419451;28;20611;-70
2022/10/02 03:50:16;;;;;;;86.55;10.90;;;;;;;15.15;88.89;100361.75;10418428;28;20044;-71
2022/10/02 03:55:17;;;;;;;155.55;15.00;;;;;;;15.65;87.19;100364.25;10418651;28;20541;-71
2022/10/02 04:00:23;;;;;;;139.43;13.27;;;;;;;16.07;86.71;100346.25;10418354;28;20049;-71
2022/10/02 04:05:49;;;;;;;65.45;9.45;;;;;;;16.66;84.17;100356.16;10418343;28;20049;-70
2022/10/02 04:10:52;;;;;;;36.08;9.95;;;;;;;17.28;81.45;100335.22;10417137;28;20042;-70
2022/10/02 04:16:25;;;;;;;33.38;10.27;;;;;;;18.07;78.47;100358.22;10385687;28;20046;-70
2022/10/02 04:21:39;;;;;;;27.85;9.35;;;;;;;18.42;75.52;100280.56;10371962;28;20081;-70
2022/10/02 04:26:52;;;;;;;22.70;9.43;;;;;;;19.00;73.76;100344.00;10377234;28;20383;-71
2022/10/02 04:32:09;;;;;;;21.43;9.10;;;;;;;18.77;72.80;100257.72;10376313;28;20104;-72
2022/10/02 04:37:35;;;;;;;20.50;8.65;;;;;;;19.50;72.11;100327.66;10376550;28;20413;-72
2022/10/02 04:42:38;;;;;;;34.67;8.85;;;;;;;19.85;71.83;100324.31;10376414;28;20398;-69
2022/10/02 04:47:45;;;;;;;17.95;8.25;;;;;;;19.94;71.33;100341.81;10376043;28;20050;-70
2022/10/02 04:53:00;;;;;;;18.95;7.93;;;;;;;20.16;70.72;100331.34;10376101;28;20061;-71
2022/10/02 04:58:23;;;;;;;14.95;8.13;;;;;;;20.49;68.52;100329.94;10375374;28;20056;-71
2022/10/02 05:03:41;;;;;;;20.57;8.93;;;;;;;20.83;67.03;100317.53;10374843;28;20042;-70
2022/10/02 05:09:00;;;;;;;17.52;8.60;;;;;;;21.09;66.35;100307.28;10375839;28;20048;-70
2022/10/02 05:14:13;;;;;;;80.35;10.65;;;;;;;21.39;67.22;100302.56;10400929;28;20076;-70
2022/10/02 05:19:23;;;;;;;19.90;8.38;;;;;;;21.77;65.72;100302.97;10416079;28;20448;-70
2022/10/02 05:24:54;;;;;;;20.75;9.20;;;;;;;21.64;65.17;100245.44;10415903;28;20524;-70
2022/10/02 05:30:16;;;;;;;24.60;8.60;;;;;;;22.01;65.56;100282.03;10414845;28;20037;-70
2022/10/02 05:35:48;;;;;;;24.25;11.30;;;;;;;22.28;64.97;100274.91;10394799;28;20080;-69
2022/10/02 05:41:08;;;;;;;27.00;6.82;;;;;;;22.95;63.36;100268.59;10379222;28;20041;-69
2022/10/02 05:46:15;;;;;;;12.05;4.20;;;;;;;23.14;61.46;100197.81;10398614;28;20041;-69
2022/10/02 05:51:28;;;;;;;28.48;3.80;;;;;;;24.04;58.85;100255.91;10380965;28;20064;-70
2022/10/02 05:56:46;;;;;;;13.05;3.17;;;;;;;24.48;56.51;100246.75;10399882;28;20041;-69
2022/10/02 06:01:49;;;;;;;9.88;2.55;;;;;;;24.68;55.74;100235.16;10406817;28;20085;-73
2022/10/02 06:06:53;;;;;;;14.20;3.35;;;;;;;24.93;55.47;100246.16;10401283;28;20106;-70
2022/10/02 06:12:05;;;;;;;21.27;3.35;;;;;;;25.10;53.94;100239.69;10386945;28;20048;-70
2022/10/02 06:17:14;;;;;;;7.68;2.47;;;;;;;25.24;52.10;100225.34;10383035;28;20433;-70
2022/10/02 06:22:20;;;;;;;19.00;2.95;;;;;;;25.35;51.95;100211.78;10370995;28;20164;-72
2022/10/02 06:27:39;;;;;;;21.42;2.88;;;;;;;25.66;49.63;100223.50;10372867;28;20046;-70
2022/10/02 06:33:17;;;;;;;17.00;3.10;;;;;;;25.91;48.74;100201.78;10382739;28;20046;-70
2022/10/02 06:38:55;;;;;;;22.45;3.53;;;;;;;26.04;47.75;100192.25;10382427;28;20064;-69
2022/10/02 06:44:47;;;;;;;13.30;2.47;;;;;;;25.77;46.32;100083.69;10381471;28;20124;-69
2022/10/02 06:50:06;;;;;;;19.02;3.42;;;;;;;26.45;47.71;100112.38;10389135;28;20119;-69
2022/10/02 06:55:25;;;;;;;17.33;2.30;;;;;;;27.07;42.53;100163.56;10387025;28;20421;-70
2022/10/02 07:00:26;;;;;;;11.68;2.10;;;;;;;27.22;43.53;100149.06;10411978;28;20513;-69
2022/10/02 07:06:05;;;;;;;13.70;2.97;;;;;;;27.57;40.92;100155.31;10405824;28;20069;-73
2022/10/02 07:11:32;;;;;;;10.25;2.35;;;;;;;27.59;38.88;100138.66;10396490;28;20780;-69
2022/10/02 07:16:46;;;;;;;17.35;2.42;;;;;;;27.30;39.33;100079.44;10410128;28;20050;-71
2022/10/02 07:21:56;;;;;;;7.85;2.22;;;;;;;27.79;38.81;100110.38;10412405;28;20049;-69
2022/10/02 07:27:26;;;;;;;18.33;2.65;;;;;;;28.04;37.23;100110.13;10412989;28;20072;-68
2022/10/02 07:32:47;;;;;;;13.93;2.67;;;;;;;28.40;38.25;100109.72;10411961;28;20501;-69
2022/10/02 07:38:15;;;;;;;21.15;4.05;;;;;;;28.55;37.73;100104.09;10414764;28;20047;-69
2022/10/02 07:43:38;;;;;;;27.42;4.07;;;;;;;27.98;37.25;100048.50;10419443;28;20057;-70
2022/10/02 07:48:55;;;;;;;19.23;3.47;;;;;;;28.30;36.49;100091.53;10418995;28;20516;-70
2022/10/02 07:54:18;;;;;;;28.58;2.80;;;;;;;28.07;35.29;100029.56;10419533;28;20065;-71
2022/10/02 07:59:20;;;;;;;18.67;3.42;;;;;;;28.46;36.91;100061.31;10419036;28;20045;-72
2022/10/02 08:04:28;;;;;;;10.52;3.10;;;;;;;27.90;36.31;99994.53;10418538;28;20038;-70
2022/10/02 08:09:42;;;;;;;18.38;2.05;;;;;;;27.92;35.46;100052.41;10419774;28;20072;-69
2022/10/02 08:14:47;;;;;;;10.48;2.40;;;;;;;27.92;36.74;100014.19;10418127;28;20041;-70
2022/10/02 08:19:51;;;;;;;18.52;2.67;;;;;;;28.43;36.00;100025.28;10417703;28;20523;-70
2022/10/02 08:24:56;;;;;;;17.27;4.50;;;;;;;28.62;36.46;100005.31;10418114;28;20034;-69
2022/10/02 08:30:02;;;;;;;16.48;4.40;;;;;;;29.00;35.88;100014.31;10417909;28;20511;-70
2022/10/02 08:35:15;;;;;;;14.35;2.85;;;;;;;29.22;36.83;99997.25;10417710;28;20076;-71
2022/10/02 08:40:34;;;;;;;19.55;3.35;;;;;;;29.19;37.46;99975.16;10417428;28;20487;-73
2022/10/02 08:45:50;;;;;;;37.03;10.05;;;;;;;28.92;37.20;99902.06;10417388;28;20475;-71
2022/10/02 08:51:16;;;;;;;12.82;3.10;;;;;;;29.27;37.67;99958.06;10416474;28;20062;-71
2022/10/02 08:56:30;;;;;;;10.75;3.45;;;;;;;29.27;37.01;99949.88;10416246;28;20041;-67
2022/10/02 09:02:02;;;;;;;14.02;3.58;;;;;;;29.43;37.26;99925.75;10416111;28;20053;-70
2022/10/02 09:07:46;;;;;;;11.95;2.78;;;;;;;29.35;36.64;99913.59;10416510;28;20103;-66
2022/10/02 09:13:01;;;;;;;20.65;3.33;;;;;;;29.32;37.70;99870.44;10415867;28;20056;-73
2022/10/02 09:18:02;;;;;;;19.27;3.47;;;;;;;29.54;38.08;99899.81;10415769;28;20095;-72
2022/10/02 09:23:12;;;;;;;12.73;2.95;;;;;;;29.69;37.01;99895.97;10415264;28;20463;-69
2022/10/02 09:28:24;;;;;;;15.35;4.93;;;;;;;29.65;36.86;99879.34;10415558;28;20405;-70
2022/10/02 09:33:44;;;;;;;35.22;4.00;;;;;;;29.24;37.39;99794.56;10414652;28;20045;-69
2022/10/02 09:39:18;;;;;;;15.20;2.97;;;;;;;29.40;37.82;99863.44;10414598;28;20128;-71
2022/10/02 09:44:28;;;;;;;17.45;3.30;;;;;;;29.16;38.54;99860.91;10414709;28;20041;-73
2022/10/02 09:49:56;;;;;;;17.15;4.35;;;;;;;28.95;37.17;99820.25;10415544;28;20043;-69
2022/10/02 09:55:24;;;;;;;26.05;11.57;;;;;;;28.98;36.11;99854.38;10413872;28;20062;-67
2022/10/02 10:00:51;;;;;;;11.95;3.25;;;;;;;29.18;36.09;99834.06;10414034;28;20037;-70
2022/10/02 10:06:10;;;;;;;24.40;3.42;;;;;;;29.45;37.19;99828.56;10413613;28;20045;-71
2022/10/02 10:11:11;;;;;;;13.60;2.72;;;;;;;29.45;37.01;99800.41;10414046;28;20045;-70
2022/10/02 10:16:55;;;;;;;14.63;2.37;;;;;;;29.66;35.80;99800.78;10413740;28;20429;-71
2022/10/02 10:22:42;;;;;;;33.13;3.03;;;;;;;29.70;35.78;99775.19;10412223;28;20315;-70
2022/10/02 10:28:40;;;;;;;15.23;3.90;;;;;;;29.68;35.21;99763.78;10412889;28;20053;-72
2022/10/02 10:34:11;;;;;;;27.55;11.77;;;;;;;29.43;34.56;99709.59;10367801;28;20046;-67
2022/10/02 10:39:30;;;;;;;17.92;7.80;;;;;;;29.64;36.06;99740.84;10406946;28;20417;-69
2022/10/02 10:44:52;;;;;;;20.75;4.93;;;;;;;29.77;35.24;99725.53;10413041;28;20099;-71
2022/10/02 10:50:22;;;;;;;18.58;3.45;;;;;;;29.71;36.15;99710.34;10412488;28;20049;-72
2022/10/02 10:55:38;;;;;;;17.92;2.83;;;;;;;28.95;35.57;99598.78;10413391;28;20153;-68
2022/10/02 11:01:08;;;;;;;13.02;2.50;;;;;;;29.29;34.86;99638.53;10412350;28;20472;-69
2022/10/02 11:06:21;;;;;;;21.23;2.67;;;;;;;29.60;36.38;99684.31;10412848;28;20393;-69
2022/10/02 11:11:40;;;;;;;;;;;;;;;29.69;36.70;99661.38;10414268;28;20049;-70
2022/10/02 11:16:53;;;;;;;26.02;3.30;;;;;;;29.45;36.63;99660.84;10420029;28;19917;-68
2022/10/02 11:21:57;;;;;;;12.00;2.53;;;;;;;29.32;37.95;99632.44;10419864;28;20029;-69
2022/10/02 11:27:21;;;;;;;20.10;3.15;;;;;;;29.34;35.89;99616.50;10419768;28;20042;-72
2022/10/02 11:32:41;;;;;;;21.65;5.88;;;;;;;29.03;37.24;99578.13;10419606;28;20037;-69
2022/10/02 11:38:16;;;;;;;13.57;3.03;;;;;;;29.33;37.10;99610.22;10419371;28;20041;-69
2022/10/02 11:43:36;;;;;;;32.35;3.15;;;;;;;29.06;36.52;99566.59;10419125;28;20071;-71
2022/10/02 11:48:49;;;;;;;19.90;2.72;;;;;;;29.21;35.90;99593.56;10419682;28;20136;-68
2022/10/02 11:54:10;;;;;;;14.88;2.67;;;;;;;29.07;36.59;99581.88;10417575;28;20144;-68
2022/10/02 11:59:28;;;;;;;25.20;3.30;;;;;;;28.48;37.04;99518.97;10418495;28;20049;-70
2022/10/02 12:04:34;;;;;;;9.02;2.15;;;;;;;28.60;36.95;99560.22;10418322;28;20045;-66
2022/10/02 12:09:42;;;;;;;22.85;3.22;;;;;;;28.58;37.05;99572.56;10403158;28;20095;-66
2022/10/02 12:15:07;;;;;;;12.13;2.35;;;;;;;28.61;37.01;99558.28;10377726;28;20046;-66
2022/10/02 12:31:44;;;;;;;28.23;5.65;;;;;;;28.27;37.49;99534.13;10418292;28;20041;-65
2022/10/02 12:37:04;;;;;;;31.50;3.70;;;;;;;28.22;38.50;99522.19;10405977;28;20037;-68
2022/10/02 12:42:14;;;;;;;40.88;3.45;;;;;;;28.29;38.49;99526.44;10411123;28;20041;-69
2022/10/02 12:47:25;;;;;;;12.48;3.50;;;;;;;28.25;38.94;99523.50;10376799;28;20045;-71
2022/10/02 12:52:48;;;;;;;12.73;3.30;;;;;;;28.15;38.70;99521.81;10408251;28;20057;-70
2022/10/02 12:58:21;;;;;;;30.27;3.83;;;;;;;27.75;38.62;99442.31;10417138;28;20136;-72
2022/10/02 13:03:48;;;;;;;20.15;3.50;;;;;;;27.90;38.16;99456.81;10412799;28;20082;-67
2022/10/02 13:09:20;;;;;;;33.83;3.85;;;;;;;28.21;39.02;99503.41;10402837;28;20038;-72
2022/10/02 13:14:44;;;;;;;34.13;3.35;;;;;;;28.15;39.85;99494.50;10377783;28;20080;-72
2022/10/02 13:20:18;;;;;;;33.70;5.50;;;;;;;28.07;39.44;99488.94;10382199;28;20124;-66
2022/10/02 13:25:57;;;;;;;14.77;3.75;;;;;;;27.91;40.03;99491.16;10415422;28;20045;-67
2022/10/02 13:31:19;;;;;;;22.65;4.93;;;;;;;27.81;40.25;99496.84;10373061;28;20545;-67
2022/10/02 13:36:33;;;;;;;22.85;3.25;;;;;;;27.69;39.83;99495.38;10374146;28;20041;-68
2022/10/02 13:42:05;;;;;;;29.70;3.67;;;;;;;27.65;40.14;99477.22;10373369;28;20111;-68
2022/10/02 13:47:24;;;;;;;53.30;4.70;;;;;;;27.50;40.06;99478.31;10384393;28;20049;-67
2022/10/02 13:52:40;;;;;;;142.82;8.93;;;;;;;27.35;40.16;99463.03;10374171;28;20077;-70
2022/10/02 13:58:00;;;;;;;27.45;3.40;;;;;;;26.96;39.63;99417.09;10376231;28;20092;-68
2022/10/02 14:03:27;;;;;;;33.60;4.18;;;;;;;27.08;39.99;99461.81;10395854;28;20049;-69
2022/10/02 14:08:42;;;;;;;29.92;3.55;;;;;;;26.88;40.18;99454.00;10375831;28;20119;-71
2022/10/02 14:13:43;;;;;;;19.95;3.08;;;;;;;26.70;40.96;99447.47;10385923;28;20057;-67
2022/10/02 14:19:16;;;;;;;24.50;2.97;;;;;;;26.52;41.05;99434.69;10374893;28;20041;-68
2022/10/02 14:30:20;;;;;;;25.02;4.43;;;;;;;26.11;42.17;99455.09;10410151;28;19913;-67
2022/10/02 14:35:45;;;;;;;38.33;12.00;;;;;;;25.98;42.43;99453.09;10371652;28;20052;-71
2022/10/02 14:40:55;;;;;;;33.35;4.55;;;;;;;25.38;42.59;99393.66;10385981;28;20568;-71
2022/10/02 14:46:10;;;;;;;29.65;4.22;;;;;;;25.63;42.78;99465.16;10386694;28;20550;-71
2022/10/02 14:51:25;;;;;;;27.90;4.40;;;;;;;25.22;42.98;99420.22;10394876;28;20136;-68
2022/10/02 14:56:47;;;;;;;36.58;3.70;;;;;;;25.25;42.85;99448.72;10397751;28;20140;-70
2022/10/02 15:02:19;;;;;;;41.47;5.20;;;;;;;25.08;42.41;99451.03;10399330;28;20041;-70
2022/10/02 15:07:23;;;;;;;45.30;5.05;;;;;;;24.67;43.12;99422.28;10399945;28;20040;-73
2022/10/02 15:12:35;;;;;;;37.58;4.07;;;;;;;24.20;43.14;99385.69;10398626;28;20049;-73
2022/10/02 15:17:58;;;;;;;36.38;4.05;;;;;;;24.50;42.89;99451.72;10392651;28;20510;-70
2022/10/02 15:23:08;;;;;;;35.92;3.42;;;;;;;24.31;43.26;99454.25;10394250;28;20057;-75
2022/10/02 15:28:23;;;;;;;37.72;4.22;;;;;;;24.13;43.58;99453.00;10393190;28;20045;-74
2022/10/02 15:33:27;;;;;;;20.60;3.78;;;;;;;23.75;43.70;99411.13;10388395;28;20417;-76
2022/10/02 15:38:47;;;;;;;;;;;;;;;23.88;43.70;99448.53;10381580;28;20116;-74
2022/10/02 15:43:59;;;;;;;36.78;4.22;;;;;;;23.12;43.85;99363.59;10394769;28;19921;-71
2022/10/02 15:49:17;;;;;;;27.08;4.18;;;;;;;23.43;44.29;99434.81;10399783;28;20077;-67
2022/10/02 15:54:45;;;;;;;36.30;5.00;;;;;;;22.93;45.13;99359.81;10395578;28;20065;-72
2022/10/02 15:59:51;;;;;;;34.95;4.63;;;;;;;23.18;45.38;99422.13;10396041;28;20041;-73
2022/10/02 16:05:11;;;;;;;29.45;4.28;;;;;;;23.02;45.84;99410.47;10394282;28;20042;-71
2022/10/02 16:10:32;;;;;;;30.90;4.13;;;;;;;22.57;46.04;99365.28;10393377;28;20042;-73
2022/10/02 16:15:53;;;;;;;25.98;3.95;;;;;;;22.76;46.83;99422.38;10391579;28;20042;-73
2022/10/02 16:21:18;;;;;;;29.90;3.45;;;;;;;21.85;47.40;99284.03;10392799;28;20038;-71
2022/10/02 16:26:54;;;;;;;34.83;3.92;;;;;;;22.44;48.16;99401.81;10394412;28;20044;-74
2022/10/02 16:32:30;;;;;;;26.80;3.72;;;;;;;22.34;48.38;99410.69;10398595;28;20088;-73
2022/10/02 16:37:58;;;;;;;43.38;4.88;;;;;;;22.33;48.87;99424.50;10388342;28;20041;-72
2022/10/02 16:43:26;;;;;;;20.70;4.13;;;;;;;22.17;49.42;99415.56;10393316;28;20514;-72
2022/10/02 16:48:38;;;;;;;48.10;5.55;;;;;;;21.84;50.47;99393.25;10390253;28;20033;-73
2022/10/02 16:54:02;;;;;;;21.98;3.63;;;;;;;21.67;51.30;99389.94;10416429;28;20452;-72
2022/10/02 16:59:22;;;;;;;18.85;3.63;;;;;;;21.61;52.14;99382.91;10417023;28;20047;-73
2022/10/02 17:04:36;;;;;;;17.88;3.92;;;;;;;21.60;53.11;99398.31;10416828;28;20041;-69
2022/10/02 17:09:46;;;;;;;34.25;4.18;;;;;;;21.28;54.30;99362.44;10415003;28;20069;-73
2022/10/02 17:14:56;;;;;;;22.00;3.28;;;;;;;21.37;54.64;99377.91;10416213;28;20037;-72
2022/10/02 17:19:59;;;;;;;34.05;3.63;;;;;;;21.33;55.29;99378.66;10384050;28;20038;-72
2022/10/02 17:25:20;;;;;;;;;;;;;;;21.38;54.28;99368.72;10390370;28;20087;-72
2022/10/02 17:30:29;;;;;;;24.38;5.93;;;;;;;21.06;56.56;99341.81;10393441;28;19917;-72
2022/10/02 17:36:00;;;;;;;44.67;11.40;;;;;;;21.11;57.91;99351.81;10394281;28;20045;-72
2022/10/02 17:41:33;;;;;;;54.63;15.00;;;;;;;21.04;58.12;99338.56;10383012;28;20033;-73
2022/10/02 17:46:48;;;;;;;80.35;28.55;;;;;;;20.59;58.27;99294.00;10393082;28;20041;-72
2022/10/02 17:56:26;;;;;;;66.10;20.42;;;;;;;20.87;57.43;99338.72;10392212;28;20498;-72
2022/10/02 17:57:31;;;;;;;101.45;40.33;;;;;;;20.78;57.96;99323.25;10381995;28;20460;-72
2022/10/02 18:02:56;;;;;;;52.83;19.93;;;;;;;20.60;59.74;99324.50;10373704;28;20201;-72
2022/10/02 18:08:18;;;;;;;35.60;8.07;;;;;;;20.60;61.32;99316.41;10389681;28;20092;-68
2022/10/02 18:13:21;;;;;;;39.83;7.15;;;;;;;20.47;60.55;99323.03;10386794;28;20053;-73
2022/10/02 18:18:31;;;;;;;37.83;5.82;;;;;;;20.39;62.41;99307.31;10389030;28;20091;-72
2022/10/02 18:23:38;;;;;;;22.08;3.30;;;;;;;20.27;63.20;99304.78;10389968;28;20433;-72
2022/10/02 18:28:57;;;;;;;32.38;4.90;;;;;;;20.20;66.15;99296.09;10409556;28;20061;-68
2022/10/02 18:34:15;;;;;;;25.38;4.10;;;;;;;20.11;66.51;99293.06;10413475;28;20544;-69
2022/10/02 18:39:26;;;;;;;25.65;3.85;;;;;;;20.01;65.70;99277.59;10412685;28;20042;-73
2022/10/02 18:44:50;;;;;;;26.45;3.50;;;;;;;19.38;67.28;99165.94;10397791;28;20030;-72
2022/10/02 18:50:13;;;;;;;;;;;;;;;20.01;67.39;99253.34;10395861;28;20037;-72
2022/10/02 18:55:43;;;;;;;28.02;3.88;;;;;;;19.87;68.50;99246.75;10405235;28;19921;-71
2022/10/02 19:01:28;;;;;;;27.85;3.50;;;;;;;19.70;70.88;99221.78;10370135;28;20069;-71
2022/10/02 19:06:42;;;;;;;27.50;3.70;;;;;;;19.73;69.91;99237.44;10365778;28;20494;-71
2022/10/02 19:11:44;;;;;;;;;;;;;;;19.76;69.99;99226.16;10380286;28;20053;-70
2022/10/02 19:17:01;;;;;;;27.00;3.67;;;;;;;19.52;71.93;99206.75;10371784;28;19964;-70
2022/10/02 19:22:18;;;;;;;30.77;4.07;;;;;;;19.50;73.86;99198.91;10371439;28;20042;-71
2022/10/02 19:27:32;;;;;;;30.13;5.05;;;;;;;19.50;74.45;99201.63;10371163;28;20073;-71
2022/10/02 19:32:40;;;;;;;24.75;4.07;;;;;;;19.39;75.04;99172.97;10372966;28;20038;-71
2022/10/02 19:37:43;;;;;;;21.88;3.60;;;;;;;19.35;74.56;99166.47;10378391;28;20533;-72
2022/10/02 19:42:49;;;;;;;25.42;5.22;;;;;;;19.49;77.28;99200.00;10378723;28;20045;-71
2022/10/02 19:47:54;;;;;;;16.65;3.72;;;;;;;19.44;77.37;99175.69;10378515;28;20571;-72
2022/10/02 19:53:04;;;;;;;23.75;3.95;;;;;;;19.09;80.28;99119.63;10378341;28;20093;-72
2022/10/02 19:58:19;;;;;;;23.90;4.32;;;;;;;18.67;78.76;99053.78;10378882;28;20045;-72
2022/10/02 20:03:23;;;;;;;22.75;4.10;;;;;;;18.97;82.58;99087.50;10377670;28;20068;-71
2022/10/02 20:08:37;;;;;;;19.30;3.97;;;;;;;19.57;86.30;99196.06;10377853;28;20129;-73
2022/10/02 20:13:41;;;;;;;;;;;;;;;19.69;80.44;99199.41;10378022;28;20045;-71
2022/10/02 20:18:41;;;;;;;;;;;;;;;19.77;80.63;99195.44;10377801;28;19917;-72
2022/10/02 20:23:48;;;;;;;13.73;3.38;;;;;;;19.68;83.78;99164.63;10376867;28;19924;-71
2022/10/02 20:29:15;;;;;;;23.35;4.43;;;;;;;19.73;84.60;99154.72;10376534;28;20045;-72
2022/10/02 20:34:25;;;;;;;26.45;5.18;;;;;;;19.57;87.68;99104.47;10383892;28;20137;-72
2022/10/02 20:39:32;;;;;;;17.40;4.53;;;;;;;20.02;87.32;99168.69;10376784;28;20053;-71
2022/10/02 20:44:35;;;;;;;17.25;4.18;;;;;;;20.01;86.80;99145.53;10374839;28;20038;-72
2022/10/02 20:49:51;;;;;;;39.30;5.57;;;;;;;20.26;90.67;99144.06;10376934;28;20510;-73
2022/10/02 20:55:04;;;;;;;17.65;4.07;;;;;;;20.17;90.66;99122.16;10375276;28;20072;-72
2022/10/02 21:00:26;;;;;;;18.25;4.85;;;;;;;20.19;91.23;99120.03;10375998;28;20071;-73
2022/10/02 21:06:01;;;;;;;38.25;5.03;;;;;;;20.28;91.44;99113.06;10376403;28;20049;-73
2022/10/02 21:11:42;;;;;;;22.25;5.20;;;;;;;20.41;91.67;99122.56;10375075;28;20077;-72
2022/10/02 21:17:13;;;;;;;17.92;4.10;;;;;;;20.51;90.64;99129.88;10374974;28;20053;-71
2022/10/02 21:22:26;;;;;;;29.80;4.75;;;;;;;20.51;86.94;99119.88;10375308;28;20034;-71
2022/10/02 21:27:32;;;;;;;22.70;4.97;;;;;;;20.57;89.50;99122.66;10375025;28;20049;-72
2022/10/02 21:33:02;;;;;;;14.85;4.57;;;;;;;20.64;90.84;99115.94;10374513;28;20046;-71
2022/10/02 21:38:31;;;;;;;19.58;5.10;;;;;;;20.65;90.95;99111.38;10375059;28;20505;-71
2022/10/02 21:44:04;;;;;;;18.17;5.38;;;;;;;20.56;90.90;99094.88;10373599;28;20037;-72
2022/10/02 21:49:23;;;;;;;23.30;4.72;;;;;;;20.58;91.19;99097.28;10372997;28;20042;-71
2022/10/02 21:54:56;;;;;;;20.17;4.88;;;;;;;20.62;91.69;99104.59;10373853;28;20068;-71
2022/10/02 22:00:16;;;;;;;25.95;5.05;;;;;;;20.65;91.73;99104.06;10373520;28;20125;-71
2022/10/02 22:06:00;;;;;;;19.60;5.28;;;;;;;20.67;92.30;99098.41;10391912;28;20073;-71
2022/10/02 22:11:14;;;;;;;19.75;4.88;;;;;;;20.30;91.30;99037.28;10413728;28;20041;-72
2022/10/02 22:16:41;;;;;;;16.58;4.63;;;;;;;20.67;90.39;99090.31;10414236;28;20045;-71
2022/10/02 22:21:59;;;;;;;19.70;5.13;;;;;;;20.66;91.97;99094.09;10413865;28;20037;-72
2022/10/02 22:27:39;;;;;;;18.40;4.57;;;;;;;20.53;92.87;99068.41;10413185;28;20041;-72
2022/10/02 22:33:11;;;;;;;19.20;5.20;;;;;;;20.66;89.47;99102.19;10393822;28;20045;-73
2022/10/02 22:38:11;;;;;;;17.58;5.10;;;;;;;20.69;89.88;99105.16;10412888;28;20068;-72
2022/10/02 22:43:38;;;;;;;25.05;5.05;;;;;;;20.51;92.75;99059.75;10412750;28;20048;-72
2022/10/02 22:48:48;;;;;;;19.42;4.95;;;;;;;20.75;93.47;99100.59;10408247;28;20502;-72
2022/10/02 22:54:07;;;;;;;17.75;5.20;;;;;;;20.78;93.62;99099.25;10413317;28;20140;-72
2022/10/02 22:59:31;;;;;;;15.90;5.28;;;;;;;20.69;93.84;99072.78;10413054;28;20111;-72
2022/10/02 23:04:42;;;;;;;23.42;5.60;;;;;;;20.64;93.58;99071.94;10412435;28;20041;-72
2022/10/02 23:09:56;;;;;;;24.42;5.00;;;;;;;20.58;93.73;99073.00;10418962;28;20120;-72
2022/10/02 23:15:23;;;;;;;26.48;6.10;;;;;;;20.67;95.85;99088.44;10420138;28;20417;-71
2022/10/02 23:20:49;;;;;;;36.90;5.55;;;;;;;20.93;95.73;99137.09;10419668;28;20421;-71
2022/10/02 23:25:52;;;;;;;33.25;6.47;;;;;;;20.45;94.10;99072.38;10420467;28;20041;-71
2022/10/02 23:31:22;;;;;;;21.55;5.38;;;;;;;20.96;95.84;99134.66;10420360;28;20034;-71
2022/10/02 23:36:36;;;;;;;29.92;5.78;;;;;;;20.84;95.12;99131.38;10411463;28;20052;-71
2022/10/02 23:41:49;;;;;;;;;;;;;;;21.04;92.70;99148.75;10420748;28;20472;-71
2022/10/02 23:46:50;;;;;;;28.52;5.72;;;;;;;20.46;92.16;99068.63;10419108;28;19919;-71
2022/10/02 23:52:33;;;;;;;19.40;4.85;;;;;;;21.02;95.12;99142.78;10419333;28;20061;-71
2022/10/02 23:57:52;;;;;;;20.70;5.15;;;;;;;20.91;92.44;99134.66;10418519;28;20045;-71
